createdAt,value
2023-02-23T00:01:27.248Z,7.68
2023-02-23T00:03:56.250Z,7.65
2023-02-23T00:06:25.312Z,7.56
2023-02-23T00:08:54.859Z,7.60
2023-02-23T00:11:23.683Z,7.61
2023-02-23T00:13:51.869Z,7.66
2023-02-23T00:16:21.769Z,7.47
2023-02-23T00:18:51.579Z,7.50
2023-02-23T00:21:22.251Z,7.50
2023-02-23T00:23:51.730Z,7.46
2023-02-23T00:26:23.100Z,7.41
2023-02-23T00:28:51.916Z,7.43
2023-02-23T00:31:23.407Z,7.48
2023-02-23T00:33:51.518Z,7.47
2023-02-23T00:36:19.013Z,7.43
2023-02-23T00:38:46.569Z,7.42
2023-02-23T00:41:20.237Z,7.39
2023-02-23T00:43:49.370Z,7.38
2023-02-23T00:46:19.037Z,7.37
2023-02-23T00:48:46.872Z,7.35
2023-02-23T00:51:15.394Z,7.34
2023-02-23T00:53:44.106Z,7.34
2023-02-23T00:56:13.966Z,7.37
2023-02-23T00:58:42.403Z,7.24
2023-02-23T01:01:13.121Z,7.25
2023-02-23T01:03:42.991Z,7.31
2023-02-23T01:06:12.581Z,7.26
2023-02-23T01:08:42.698Z,7.24
2023-02-23T01:11:13.454Z,7.29
2023-02-23T01:13:43.087Z,7.28
2023-02-23T01:16:14.856Z,7.32
2023-02-23T01:18:44.564Z,7.30
2023-02-23T01:21:17.267Z,7.30
2023-02-23T01:23:45.813Z,7.29
2023-02-23T01:26:16.970Z,7.34
2023-02-23T01:28:44.586Z,7.36
2023-02-23T01:31:13.552Z,7.29
2023-02-23T01:33:41.129Z,7.38
2023-02-23T01:36:09.716Z,7.28
2023-02-23T01:38:37.837Z,7.30
2023-02-23T01:41:06.918Z,7.30
2023-02-23T01:43:34.829Z,7.29
2023-02-23T01:46:02.376Z,7.28
2023-02-23T01:48:36.854Z,7.28
2023-02-23T01:51:08.735Z,7.22
2023-02-23T01:53:40.444Z,7.24
2023-02-23T01:56:12.483Z,7.23
2023-02-23T01:58:41.771Z,7.25
2023-02-23T02:01:10.963Z,7.25
2023-02-23T02:03:44.701Z,7.12
2023-02-23T02:06:16.600Z,7.17
2023-02-23T02:08:48.156Z,7.11
2023-02-23T02:11:30.661Z,7.12
2023-02-23T02:14:00.564Z,7.12
2023-02-23T02:16:49.941Z,7.10
2023-02-23T02:20:05.330Z,7.12
2023-02-23T02:23:12.408Z,7.14
2023-02-23T02:25:55.870Z,7.15
2023-02-23T02:28:49.247Z,7.18
2023-02-23T02:31:47.549Z,7.18
2023-02-23T02:34:48.602Z,7.23
2023-02-23T02:37:37.637Z,7.23
2023-02-23T02:40:16.536Z,7.22
2023-02-23T02:43:08.113Z,7.26
2023-02-23T02:45:42.310Z,7.25
2023-02-23T02:48:19.205Z,7.21
2023-02-23T02:50:55.358Z,7.25
2023-02-23T02:53:31.871Z,7.24
2023-02-23T02:56:05.619Z,7.27
2023-02-23T02:58:36.826Z,7.31
2023-02-23T03:01:27.668Z,7.29
2023-02-23T03:04:12.745Z,7.32
2023-02-23T03:07:05.436Z,7.35
2023-02-23T03:10:00.440Z,7.39
2023-02-23T03:12:56.989Z,7.40
2023-02-23T03:15:56.653Z,7.43
2023-02-23T03:18:59.594Z,7.45
2023-02-23T03:21:49.522Z,7.48
2023-02-23T03:24:44.927Z,7.53
2023-02-23T03:27:38.564Z,7.54
2023-02-23T03:30:33.286Z,7.56
2023-02-23T03:33:24.544Z,7.51
2023-02-23T03:36:16.372Z,7.54
2023-02-23T03:39:08.174Z,7.61
2023-02-23T03:41:55.867Z,7.56
2023-02-23T03:44:51.661Z,7.54
2023-02-23T03:47:41.232Z,7.54
2023-02-23T03:50:32.693Z,7.52
2023-02-23T03:53:21.148Z,7.58
2023-02-23T03:56:10.837Z,7.60
2023-02-23T03:58:59.570Z,7.61
2023-02-23T04:01:47.683Z,7.62
2023-02-23T04:04:32.903Z,7.60
2023-02-23T04:07:21.167Z,7.66
2023-02-23T04:10:07.074Z,7.67
2023-02-23T04:12:57.068Z,7.66
2023-02-23T04:15:27.809Z,7.72
2023-02-23T04:17:57.079Z,7.80
2023-02-23T04:20:25.819Z,7.81
2023-02-23T04:22:53.418Z,7.79
2023-02-23T04:25:22.815Z,7.74
2023-02-23T04:27:50.470Z,7.76
2023-02-23T04:30:20.088Z,7.76
2023-02-23T04:32:47.814Z,7.77
2023-02-23T04:35:17.027Z,7.79
2023-02-23T04:37:44.587Z,7.79
2023-02-23T04:40:13.256Z,7.74
2023-02-23T04:42:41.544Z,7.78
2023-02-23T04:45:10.667Z,7.76
2023-02-23T04:47:38.595Z,7.78
2023-02-23T04:50:07.236Z,7.75
2023-02-23T04:52:37.555Z,7.77
2023-02-23T04:55:06.842Z,7.80
2023-02-23T04:57:34.990Z,7.82
2023-02-23T05:00:04.405Z,7.80
2023-02-23T05:02:32.291Z,7.83
2023-02-23T05:04:59.921Z,7.81
2023-02-23T05:07:27.509Z,7.76
2023-02-23T05:09:56.396Z,7.80
2023-02-23T05:12:23.936Z,7.86
2023-02-23T05:14:51.433Z,7.88
2023-02-23T05:17:19.005Z,7.83
2023-02-23T05:19:49.320Z,7.89
2023-02-23T05:22:16.936Z,7.83
2023-02-23T05:24:44.522Z,7.86
2023-02-23T05:27:14.003Z,7.88
2023-02-23T05:29:41.992Z,7.89
2023-02-23T05:32:09.670Z,7.94
2023-02-23T05:34:38.991Z,7.82
2023-02-23T05:37:07.008Z,7.94
2023-02-23T05:39:34.559Z,7.89
2023-02-23T05:42:02.061Z,7.83
2023-02-23T05:44:30.975Z,7.82
2023-02-23T05:46:58.492Z,7.77
2023-02-23T05:49:26.043Z,7.65
2023-02-23T05:51:53.546Z,7.72
2023-02-23T05:54:21.105Z,7.69
2023-02-23T05:56:49.017Z,7.60
2023-02-23T05:59:17.353Z,7.51
2023-02-23T06:01:46.338Z,7.54
2023-02-23T06:04:14.127Z,7.48
2023-02-23T06:06:41.777Z,7.49
2023-02-23T06:09:09.400Z,7.50
2023-02-23T06:11:37.015Z,7.52
2023-02-23T06:14:04.592Z,7.49
2023-02-23T06:16:32.347Z,7.45
2023-02-23T06:19:01.342Z,7.51
2023-02-23T06:21:29.202Z,7.58
2023-02-23T06:24:00.551Z,7.60
2023-02-23T06:26:28.378Z,7.67
2023-02-23T06:28:56.245Z,7.65
2023-02-23T06:31:23.994Z,7.61
2023-02-23T06:33:51.630Z,7.59
2023-02-23T06:36:20.588Z,7.46
2023-02-23T06:38:48.283Z,7.42
2023-02-23T06:41:15.818Z,7.34
2023-02-23T06:43:43.441Z,7.38
2023-02-23T06:46:11.081Z,7.43
2023-02-23T06:48:38.806Z,7.39
2023-02-23T06:51:07.015Z,7.44
2023-02-23T06:53:36.180Z,7.39
2023-02-23T06:56:04.086Z,7.44
2023-02-23T06:58:31.810Z,7.52
2023-02-23T07:01:00.317Z,7.50
2023-02-23T07:03:28.077Z,7.48
2023-02-23T07:05:55.682Z,7.46
2023-02-23T07:08:23.455Z,7.43
2023-02-23T07:10:52.333Z,7.45
2023-02-23T07:13:20.344Z,7.42
2023-02-23T07:15:48.018Z,7.44
2023-02-23T07:18:16.213Z,7.35
2023-02-23T07:20:44.044Z,7.40
2023-02-23T07:23:11.566Z,7.39
2023-02-23T07:25:39.231Z,7.31
2023-02-23T07:28:08.135Z,7.36
2023-02-23T07:30:35.796Z,7.39
2023-02-23T07:33:03.353Z,7.41
2023-02-23T07:35:30.900Z,7.41
2023-02-23T07:37:58.579Z,7.32
2023-02-23T07:40:26.540Z,7.24
2023-02-23T07:42:55.291Z,7.25
2023-02-23T07:45:25.096Z,7.25
2023-02-23T07:47:52.672Z,7.32
2023-02-23T07:50:20.271Z,7.27
2023-02-23T07:52:47.862Z,7.26
2023-02-23T07:55:15.423Z,7.30
2023-02-23T07:57:42.993Z,7.33
2023-02-23T08:00:11.859Z,7.35
2023-02-23T08:02:43.528Z,7.34
2023-02-23T08:05:11.236Z,7.37
2023-02-23T08:07:38.831Z,7.38
2023-02-23T08:10:07.458Z,7.33
2023-02-23T08:12:35.080Z,7.34
2023-02-23T08:15:02.744Z,7.37
2023-02-23T08:17:30.328Z,7.35
2023-02-23T08:19:59.490Z,7.45
2023-02-23T08:22:27.088Z,7.32
2023-02-23T08:24:54.626Z,7.35
2023-02-23T08:27:22.640Z,7.35
2023-02-23T08:29:52.503Z,7.30
2023-02-23T08:32:20.141Z,7.34
2023-02-23T08:34:47.674Z,7.36
2023-02-23T08:37:16.569Z,7.41
2023-02-23T08:39:44.398Z,7.43
2023-02-23T08:42:11.938Z,7.32
2023-02-23T08:44:39.445Z,7.34
2023-02-23T08:47:07.007Z,7.39
2023-02-23T08:49:34.609Z,7.38
2023-02-23T08:52:02.221Z,7.22
2023-02-23T08:54:31.289Z,7.24
2023-02-23T08:56:58.879Z,7.32
2023-02-23T08:59:26.782Z,7.28
2023-02-23T09:01:54.414Z,7.30
2023-02-23T09:04:22.109Z,7.30
2023-02-23T09:06:50.188Z,7.33
2023-02-23T09:09:18.221Z,7.28
2023-02-23T09:11:47.334Z,7.21
2023-02-23T09:14:14.935Z,7.19
2023-02-23T09:16:43.438Z,7.14
2023-02-23T09:19:11.061Z,7.09
2023-02-23T09:21:38.630Z,7.12
2023-02-23T09:24:06.849Z,7.14
2023-02-23T09:26:39.924Z,7.16
2023-02-23T09:29:09.284Z,7.16
2023-02-23T09:31:37.193Z,7.00
2023-02-23T09:34:04.802Z,6.90
2023-02-23T09:36:32.689Z,6.79
2023-02-23T09:39:00.246Z,6.86
2023-02-23T09:41:59.665Z,6.89
2023-02-23T09:44:49.390Z,6.80
2023-02-23T09:47:30.584Z,6.78
2023-02-23T09:50:00.230Z,6.86
2023-02-23T09:52:35.512Z,6.95
2023-02-23T09:55:03.510Z,6.93
2023-02-23T09:57:37.876Z,7.03
2023-02-23T10:00:16.879Z,7.03
2023-02-23T10:03:01.916Z,7.05
2023-02-23T10:05:32.968Z,7.06
2023-02-23T10:08:05.164Z,7.12
2023-02-23T10:10:39.347Z,7.05
2023-02-23T10:13:17.321Z,7.05
2023-02-23T10:15:51.336Z,7.04
2023-02-23T10:18:45.203Z,6.98
2023-02-23T10:21:19.471Z,6.97
2023-02-23T10:23:53.057Z,6.93
2023-02-23T10:26:24.856Z,6.93
2023-02-23T10:28:54.942Z,6.87
2023-02-23T10:31:31.272Z,6.95
2023-02-23T10:34:04.690Z,7.08
2023-02-23T10:36:37.879Z,7.10
2023-02-23T10:39:08.958Z,7.06
2023-02-23T10:41:37.902Z,7.07
2023-02-23T10:44:16.179Z,7.13
2023-02-23T10:46:50.262Z,7.23
2023-02-23T10:49:22.475Z,7.22
2023-02-23T10:51:52.349Z,7.25
2023-02-23T10:54:44.066Z,7.23
2023-02-23T10:57:20.087Z,7.17
2023-02-23T11:00:02.093Z,7.12
2023-02-23T11:02:31.875Z,7.13
2023-02-23T11:05:01.880Z,7.20
2023-02-23T11:07:31.214Z,7.21
2023-02-23T11:09:59.591Z,7.09
2023-02-23T11:12:36.886Z,7.18
2023-02-23T11:15:46.346Z,7.05
2023-02-23T11:18:23.487Z,7.10
2023-02-23T11:20:52.144Z,7.15
2023-02-23T11:23:24.568Z,7.23
2023-02-23T11:25:56.488Z,7.22
2023-02-23T11:28:30.139Z,7.36
2023-02-23T11:31:01.623Z,7.40
2023-02-23T11:33:35.741Z,7.44
2023-02-23T11:36:21.632Z,7.40
2023-02-23T11:39:02.448Z,7.52
2023-02-23T11:41:31.679Z,7.52
2023-02-23T11:44:02.839Z,7.56
2023-02-23T11:46:33.774Z,7.52
2023-02-23T11:49:06.666Z,7.58
2023-02-23T11:51:36.881Z,7.50
2023-02-23T11:54:06.074Z,7.50
2023-02-23T11:56:36.253Z,7.52
2023-02-23T11:59:07.197Z,7.49
2023-02-23T12:01:44.598Z,7.53
2023-02-23T12:04:29.102Z,7.48
2023-02-23T12:07:19.701Z,7.54
2023-02-23T12:09:52.269Z,7.51
2023-02-23T12:12:25.317Z,7.53
2023-02-23T12:14:58.223Z,7.50
2023-02-23T12:17:28.841Z,7.51
2023-02-23T12:20:03.177Z,7.57
2023-02-23T12:22:36.357Z,7.64
2023-02-23T12:25:10.176Z,7.62
2023-02-23T12:27:42.471Z,7.60
2023-02-23T12:30:18.340Z,7.62
2023-02-23T12:32:51.205Z,7.65
2023-02-23T12:35:26.852Z,7.69
2023-02-23T12:38:01.161Z,7.67
2023-02-23T12:40:31.039Z,7.70
2023-02-23T12:43:03.666Z,7.64
2023-02-23T12:45:38.063Z,7.58
2023-02-23T12:48:15.288Z,7.59
2023-02-23T12:50:50.886Z,7.61
2023-02-23T12:53:23.070Z,7.59
2023-02-23T12:56:05.491Z,7.62
2023-02-23T12:58:41.915Z,7.62
2023-02-23T13:01:14.497Z,7.66
2023-02-23T13:03:57.101Z,7.63
2023-02-23T13:06:35.329Z,7.66
2023-02-23T13:09:23.122Z,7.64
2023-02-23T13:12:07.237Z,7.66
2023-02-23T13:14:43.056Z,7.73
2023-02-23T13:17:26.408Z,7.68
2023-02-23T13:19:59.254Z,7.72
2023-02-23T13:22:36.549Z,7.73
2023-02-23T13:25:18.858Z,7.78
2023-02-23T13:27:52.394Z,7.77
2023-02-23T13:30:22.396Z,7.86
2023-02-23T13:32:50.863Z,7.83
2023-02-23T13:35:20.642Z,7.85
2023-02-23T13:37:55.314Z,7.83
2023-02-23T13:40:30.685Z,7.96
2023-02-23T13:43:07.592Z,7.90
2023-02-23T13:45:49.602Z,7.88
2023-02-23T13:48:26.760Z,7.90
2023-02-23T13:51:00.276Z,7.97
2023-02-23T13:53:39.527Z,7.95
2023-02-23T13:56:09.296Z,8.00
2023-02-23T13:58:37.978Z,8.00
2023-02-23T14:01:10.850Z,7.93
2023-02-23T14:03:47.937Z,7.90
2023-02-23T14:06:18.848Z,7.86
2023-02-23T14:08:55.311Z,7.88
2023-02-23T14:11:42.657Z,7.93
2023-02-23T14:14:14.255Z,7.85
2023-02-23T14:16:42.014Z,7.85
2023-02-23T14:19:36.374Z,7.90
2023-02-23T14:22:06.933Z,7.82
2023-02-23T14:24:35.996Z,7.85
2023-02-23T14:27:39.888Z,7.85
2023-02-23T14:30:20.869Z,7.75
2023-02-23T14:32:50.539Z,7.76
2023-02-23T14:35:42.508Z,7.74
2023-02-23T14:38:12.857Z,7.80
2023-02-23T14:40:43.642Z,7.85
2023-02-23T14:43:42.605Z,7.83
2023-02-23T14:46:15.537Z,7.83
2023-02-23T14:48:56.603Z,7.78
2023-02-23T14:51:29.754Z,7.76
2023-02-23T14:53:59.949Z,7.83
2023-02-23T14:56:43.251Z,7.87
2023-02-23T14:59:20.852Z,7.87
2023-02-23T15:01:49.572Z,7.97
2023-02-23T15:04:20.356Z,7.91
2023-02-23T15:06:47.968Z,7.91
2023-02-23T15:09:20.941Z,7.91
2023-02-23T15:11:54.065Z,7.83
2023-02-23T15:14:29.793Z,7.77
2023-02-23T15:16:57.681Z,7.71
2023-02-23T15:19:28.727Z,7.81
2023-02-23T15:21:58.024Z,7.74
2023-02-23T15:24:28.642Z,7.68
2023-02-23T15:26:57.727Z,7.59
2023-02-23T15:29:27.315Z,7.58
2023-02-23T15:31:57.955Z,7.59
2023-02-23T15:34:27.399Z,7.43
2023-02-23T15:36:58.736Z,7.43
2023-02-23T15:39:37.389Z,7.39
2023-02-23T15:42:07.951Z,7.36
2023-02-23T15:44:44.086Z,7.39
2023-02-23T15:47:18.252Z,7.31
2023-02-23T15:49:45.840Z,7.35
2023-02-23T15:52:18.639Z,7.27
2023-02-23T15:54:51.970Z,7.26
2023-02-23T15:57:23.807Z,7.26
2023-02-23T15:59:54.434Z,7.26
2023-02-23T16:02:25.907Z,7.28
2023-02-23T16:04:53.697Z,7.19
2023-02-23T16:07:23.757Z,7.23
2023-02-23T16:09:53.700Z,7.17
2023-02-23T16:12:25.527Z,7.17
2023-02-23T16:14:55.888Z,7.14
2023-02-23T16:17:29.961Z,7.08
2023-02-23T16:20:08.621Z,7.01
2023-02-23T16:22:39.694Z,6.98
2023-02-23T16:25:13.036Z,6.89
2023-02-23T16:27:44.202Z,6.82
2023-02-23T16:30:23.108Z,6.68
2023-02-23T16:33:05.738Z,6.63
2023-02-23T16:35:37.508Z,6.58
2023-02-23T16:38:13.688Z,6.54
2023-02-23T16:40:42.017Z,6.52
2023-02-23T16:43:11.069Z,6.42
2023-02-23T16:45:42.427Z,6.45
2023-02-23T16:48:14.320Z,6.44
2023-02-23T16:50:42.709Z,6.45
2023-02-23T16:53:12.081Z,6.42
2023-02-23T16:55:42.363Z,6.31
2023-02-23T16:58:17.628Z,6.22
2023-02-23T17:00:45.649Z,6.20
2023-02-23T17:03:20.194Z,6.18
2023-02-23T17:05:48.199Z,6.17
2023-02-23T17:08:16.116Z,6.12
2023-02-23T17:10:46.126Z,6.04
2023-02-23T17:13:18.300Z,5.94
2023-02-23T17:15:50.498Z,5.96
2023-02-23T17:18:18.729Z,5.98
2023-02-23T17:20:46.562Z,5.88
2023-02-23T17:23:14.097Z,5.85
2023-02-23T17:25:41.657Z,5.79
2023-02-23T17:28:09.282Z,5.83
2023-02-23T17:30:39.160Z,5.91
2023-02-23T17:33:07.984Z,5.88
2023-02-23T17:35:37.368Z,5.83
2023-02-23T17:38:05.217Z,5.77
2023-02-23T17:40:36.194Z,5.72
2023-02-23T17:43:06.198Z,5.61
2023-02-23T17:45:33.799Z,5.57
2023-02-23T17:48:02.721Z,5.55
2023-02-23T17:50:30.559Z,5.56
2023-02-23T17:52:58.725Z,5.47
2023-02-23T17:55:26.661Z,5.52
2023-02-23T17:57:54.244Z,5.49
2023-02-23T18:00:22.094Z,5.45
2023-02-23T18:02:49.640Z,5.41
2023-02-23T18:05:18.997Z,5.35
2023-02-23T18:07:48.669Z,5.31
2023-02-23T18:10:16.810Z,5.31
2023-02-23T18:12:44.439Z,5.28
2023-02-23T18:15:12.157Z,5.24
2023-02-23T18:17:39.722Z,5.11
2023-02-23T18:20:08.168Z,5.08
2023-02-23T18:22:37.066Z,5.04
2023-02-23T18:25:05.113Z,5.05
2023-02-23T18:27:32.748Z,5.03
2023-02-23T18:30:00.371Z,5.02
2023-02-23T18:32:28.103Z,4.98
2023-02-23T18:34:56.681Z,4.92
2023-02-23T18:37:28.635Z,4.90
2023-02-23T18:39:59.242Z,4.85
2023-02-23T18:42:27.333Z,4.81
2023-02-23T18:44:54.925Z,4.73
2023-02-23T18:47:22.444Z,4.75
2023-02-23T18:49:50.123Z,4.81
2023-02-23T18:52:17.612Z,4.69
2023-02-23T18:54:45.545Z,4.62
2023-02-23T18:57:14.568Z,4.43
2023-02-23T18:59:42.410Z,4.51
2023-02-23T19:02:11.198Z,4.39
2023-02-23T19:04:39.267Z,4.41
2023-02-23T19:07:06.824Z,4.30
2023-02-23T19:09:34.364Z,4.31
2023-02-23T19:12:01.919Z,4.32
2023-02-23T19:14:48.318Z,4.32
2023-02-23T19:17:16.722Z,4.35
2023-02-23T19:19:44.567Z,4.31
2023-02-23T19:22:12.126Z,4.14
2023-02-23T19:24:40.618Z,4.09
2023-02-23T19:27:08.277Z,4.11
2023-02-23T19:29:37.581Z,4.08
2023-02-23T19:32:05.939Z,4.01
2023-02-23T19:34:33.648Z,4.00
2023-02-23T19:37:01.168Z,3.97
2023-02-23T19:39:29.928Z,3.92
2023-02-23T19:41:57.470Z,3.94
2023-02-23T19:44:25.021Z,3.80
2023-02-23T19:46:54.092Z,3.74
2023-02-23T19:49:21.681Z,3.75
2023-02-23T19:51:50.607Z,3.74
2023-02-23T19:54:18.108Z,3.67
2023-02-23T19:56:45.686Z,3.71
2023-02-23T19:59:13.634Z,3.71
2023-02-23T20:01:43.425Z,3.69
2023-02-23T20:04:12.988Z,3.72
2023-02-23T20:06:44.437Z,3.73
2023-02-23T20:09:12.043Z,3.76
2023-02-23T20:11:40.481Z,3.77
2023-02-23T20:14:08.362Z,3.79
2023-02-23T20:16:36.590Z,3.76
2023-02-23T20:19:06.331Z,3.82
2023-02-23T20:21:36.661Z,3.89
2023-02-23T20:24:05.621Z,3.85
2023-02-23T20:26:35.353Z,3.88
2023-02-23T20:29:06.650Z,3.88
2023-02-23T20:31:36.334Z,3.94
2023-02-23T20:34:06.360Z,3.88
2023-02-23T20:36:35.541Z,3.87
2023-02-23T20:39:03.506Z,3.82
2023-02-23T20:41:31.503Z,3.78
2023-02-23T20:44:00.698Z,3.86
2023-02-23T20:46:30.880Z,3.80
2023-02-23T20:48:59.243Z,3.78
2023-02-23T20:51:27.363Z,3.78
2023-02-23T20:53:56.351Z,3.80
2023-02-23T20:56:23.974Z,3.79
2023-02-23T20:58:54.162Z,3.82
2023-02-23T21:01:25.957Z,3.79
2023-02-23T21:03:55.071Z,3.83
2023-02-23T21:06:24.825Z,3.92
2023-02-23T21:08:55.574Z,3.92
2023-02-23T21:11:26.432Z,3.92
2023-02-23T21:13:54.264Z,3.94
2023-02-23T21:16:26.204Z,3.97
2023-02-23T21:19:03.951Z,3.97
2023-02-23T21:21:32.751Z,3.99
2023-02-23T21:24:00.331Z,4.08
2023-02-23T21:26:30.501Z,4.06
2023-02-23T21:28:58.290Z,4.12
2023-02-23T21:31:26.836Z,4.15
2023-02-23T21:33:54.678Z,4.13
2023-02-23T21:36:24.966Z,4.17
2023-02-23T21:38:52.617Z,4.16
2023-02-23T21:41:20.379Z,4.20
2023-02-23T21:43:53.365Z,4.24
2023-02-23T21:46:22.975Z,4.22
2023-02-23T21:48:50.622Z,4.22
2023-02-23T21:51:18.603Z,4.23
2023-02-23T21:53:48.295Z,4.24
2023-02-23T21:56:17.509Z,4.32
2023-02-23T21:58:47.722Z,4.23
2023-02-23T22:01:19.300Z,4.21
2023-02-23T22:03:47.646Z,4.19
2023-02-23T22:06:16.730Z,4.26
2023-02-23T22:08:44.853Z,4.36
2023-02-23T22:11:17.114Z,4.38
2023-02-23T22:13:45.294Z,4.32
2023-02-23T22:16:14.020Z,4.33
2023-02-23T22:18:43.426Z,4.30
2023-02-23T22:21:12.716Z,4.23
2023-02-23T22:23:41.383Z,4.26
2023-02-23T22:26:09.092Z,4.28
2023-02-23T22:28:37.563Z,4.27
2023-02-23T22:31:08.246Z,4.30
2023-02-23T22:33:36.610Z,4.25
2023-02-23T22:36:08.008Z,4.25
2023-02-23T22:38:37.120Z,4.31
2023-02-23T22:41:07.094Z,4.26
2023-02-23T22:43:35.198Z,4.16
2023-02-23T22:46:02.874Z,4.11
2023-02-23T22:48:30.443Z,4.06
2023-02-23T22:50:58.707Z,4.02
2023-02-23T22:53:29.044Z,4.02
2023-02-23T22:55:57.167Z,3.94
2023-02-23T22:58:26.496Z,3.90
2023-02-23T23:01:05.755Z,3.86
2023-02-23T23:03:36.110Z,3.86
2023-02-23T23:06:04.666Z,3.87
2023-02-23T23:08:36.865Z,3.85
2023-02-23T23:11:09.153Z,3.97
2023-02-23T23:13:40.952Z,3.99
2023-02-23T23:16:16.930Z,4.02
2023-02-23T23:18:54.284Z,4.06
2023-02-23T23:21:24.648Z,3.97
2023-02-23T23:23:56.121Z,3.91
2023-02-23T23:26:25.589Z,3.93
2023-02-23T23:28:55.880Z,3.96
2023-02-23T23:31:28.030Z,3.93
2023-02-23T23:34:00.053Z,3.89
2023-02-23T23:36:29.902Z,3.96
2023-02-23T23:38:59.298Z,3.91
2023-02-23T23:41:29.094Z,3.87
2023-02-23T23:43:58.635Z,3.81
2023-02-23T23:46:28.729Z,3.83
2023-02-23T23:48:58.985Z,3.85
2023-02-23T23:51:30.475Z,3.76
2023-02-23T23:54:01.368Z,3.77
2023-02-23T23:56:30.815Z,3.75
2023-02-23T23:58:59.340Z,3.81
